Time;durP1;ratioP1;P1;durP2;ratioP2;P2;SDS_P1;SDS_P2;PMS_P1;PMS_P2;Temp;Humidity;BMP_temperature;BMP_pressure;BME280_temperature;BME280_humidity;BME280_pressure;Samples;Min_cycle;Max_cycle;Signal;HPM_P1;HPM_P2
2022/03/01 00:01:36;;;;;;;;;62.00;44.25;;;;;7.78;47.75;102334.16;5058015;28;45499;-64
2022/03/01 00:04:01;;;;;;;;;54.75;42.00;;;;;7.74;48.01;102332.41;5057549;28;45735;-66
2022/03/01 00:06:27;;;;;;;;;57.25;46.50;;;;;7.72;47.59;102327.22;5059438;28;45549;-63
2022/03/01 00:08:54;;;;;;;;;62.00;48.75;;;;;7.69;47.95;102331.50;5058739;28;45625;-64
2022/03/01 00:11:23;;;;;;;;;58.00;43.00;;;;;7.67;48.10;102331.47;5059637;28;45272;-63
2022/03/01 00:13:48;;;;;;;;;54.75;44.75;;;;;7.66;48.21;102339.22;5059338;28;45721;-62
2022/03/01 00:16:14;;;;;;;;;57.00;46.00;;;;;7.62;47.96;102338.34;5059775;28;45429;-61
2022/03/01 00:18:39;;;;;;;;;66.25;46.25;;;;;7.58;48.23;102327.06;5059285;28;45541;-65
2022/03/01 00:21:05;;;;;;;;;59.25;45.75;;;;;7.58;48.45;102339.13;5059371;28;45349;-62
2022/03/01 00:23:32;;;;;;;;;62.25;46.00;;;;;7.54;48.71;102337.38;5057161;28;45474;-62
2022/03/01 00:25:57;;;;;;;;;58.25;42.00;;;;;7.46;48.61;102326.97;5059947;28;45260;-65
2022/03/01 00:28:23;;;;;;;;;59.75;45.50;;;;;7.48;48.80;102329.56;5059426;28;45317;-65
2022/03/01 00:30:48;;;;;;;;;49.75;40.75;;;;;7.45;48.71;102320.03;5058066;28;47214;-64
2022/03/01 00:33:13;;;;;;;;;64.00;47.50;;;;;7.42;48.89;102320.03;5057739;28;45323;-65
2022/03/01 00:35:39;;;;;;;;;50.75;43.00;;;;;7.37;49.20;102311.31;5059947;28;45258;-64
2022/03/01 00:38:04;;;;;;;;;54.00;43.00;;;;;7.35;48.99;102315.63;5058417;28;45212;-64
2022/03/01 00:40:29;;;;;;;;;62.75;43.75;;;;;7.33;49.28;102313.00;5058000;28;47149;-62
2022/03/01 00:42:55;;;;;;;;;58.25;43.25;;;;;7.31;49.57;102313.84;5059485;28;45219;-61
2022/03/01 00:45:20;;;;;;;;;61.50;47.75;;;;;7.27;49.68;102312.94;5059490;28;45544;-62
2022/03/01 00:47:45;;;;;;;;;60.00;44.50;;;;;7.25;49.71;102318.97;5059027;28;45623;-62
2022/03/01 00:50:11;;;;;;;;;60.50;45.25;;;;;7.25;49.57;102324.13;5059430;28;45203;-62
2022/03/01 00:52:36;;;;;;;;;52.00;43.00;;;;;7.24;49.93;102324.97;5058402;28;45259;-62
2022/03/01 00:55:02;;;;;;;;;57.00;43.00;;;;;7.22;50.14;102326.69;5057639;28;45253;-62
2022/03/01 00:57:28;;;;;;;;;52.00;42.25;;;;;7.22;50.04;102329.28;5057310;28;46232;-63
2022/03/01 00:59:53;;;;;;;;;55.50;43.25;;;;;7.18;50.50;102327.47;5057619;28;46304;-62
2022/03/01 01:02:18;;;;;;;;;52.75;42.25;;;;;7.17;50.56;102328.31;5057676;28;45549;-62
2022/03/01 01:04:44;;;;;;;;;54.50;43.75;;;;;7.15;50.46;102330.91;5058232;28;45503;-62
2022/03/01 01:07:09;;;;;;;;;55.00;41.25;;;;;7.18;50.09;102333.50;5057178;28;45514;-62
2022/03/01 01:09:34;;;;;;;;;62.75;47.75;;;;;7.15;50.21;102320.56;5057844;28;45434;-63
2022/03/01 01:12:00;;;;;;;;;58.50;43.75;;;;;7.12;50.63;102314.47;5057826;28;45378;-64
2022/03/01 01:14:25;;;;;;;;;59.00;44.25;;;;;7.13;50.75;102314.50;5059133;28;45339;-64
2022/03/01 01:16:51;;;;;;;;;57.25;42.00;;;;;7.11;50.69;102313.63;5058779;28;45480;-63
2022/03/01 01:19:17;;;;;;;;;59.75;44.50;;;;;7.10;51.09;102311.03;5058783;28;46347;-63
2022/03/01 01:24:26;;;;;;;;;56.75;42.75;;;;;7.04;50.94;102305.78;5059085;28;45447;-64
2022/03/01 01:26:51;;;;;;;;;62.25;47.00;;;;;7.05;50.61;102312.69;5058757;28;45415;-64
2022/03/01 01:29:16;;;;;;;;;53.50;44.25;;;;;7.01;51.05;102307.47;5058842;28;46732;-64
2022/03/01 01:31:42;;;;;;;;;62.25;44.25;;;;;6.99;51.16;102309.16;5058566;28;45354;-64
2022/03/01 01:34:07;;;;;;;;;68.25;47.25;;;;;6.96;51.29;102306.53;5059021;28;45308;-64
2022/03/01 01:36:33;;;;;;;;;65.75;47.00;;;;;6.93;51.05;102309.09;5058063;28;45240;-66
2022/03/01 01:38:59;;;;;;;;;50.00;36.00;;;;;6.92;51.19;102296.16;5058710;28;45343;-64
2022/03/01 01:41:25;;;;;;;;;58.75;46.75;;;;;6.90;51.22;102308.19;5057261;28;45280;-62
2022/03/01 01:43:50;;;;;;;;;61.75;45.25;;;;;6.87;51.05;102310.72;5059379;28;45422;-62
2022/03/01 01:46:15;;;;;;;;;59.75;43.00;;;;;6.83;51.76;102301.22;5061499;28;45240;-62
2022/03/01 01:48:41;;;;;;;;;62.00;47.00;;;;;6.81;51.79;102311.53;5062305;28;45272;-62
2022/03/01 01:51:06;;;;;;;;;66.25;47.25;;;;;6.80;51.63;102307.19;5061115;28;45246;-60
2022/03/01 01:53:31;;;;;;;;;67.75;49.00;;;;;6.77;52.71;102308.84;5077569;28;45487;-63
2022/03/01 01:55:57;;;;;;;;;64.00;47.25;;;;;6.73;52.52;102318.28;5061849;28;45198;-63
2022/03/01 01:58:23;;;;;;;;;56.25;44.25;;;;;6.70;53.12;102310.50;5062048;28;45404;-62
2022/03/01 02:00:48;;;;;;;;;64.25;47.50;;;;;6.68;52.66;102322.53;5061596;28;46150;-62
2022/03/01 02:03:15;;;;;;;;;66.75;47.50;;;;;6.63;52.81;102319.91;5062355;28;45497;-62
2022/03/01 02:05:40;;;;;;;;;65.25;47.25;;;;;6.62;53.44;102327.63;5061622;28;45314;-62
2022/03/01 02:08:06;;;;;;;;;63.00;47.25;;;;;6.60;52.85;102321.53;5061057;28;45408;-62
2022/03/01 02:10:31;;;;;;;;;64.25;50.50;;;;;6.60;53.09;102316.38;5061673;28;45270;-62
2022/03/01 02:12:57;;;;;;;;;65.75;51.00;;;;;6.60;53.58;102316.38;5060090;28;45441;-62
2022/03/01 02:15:23;;;;;;;;;73.25;51.50;;;;;6.56;53.32;102305.13;5052860;28;45599;-62
2022/03/01 02:17:49;;;;;;;;;69.00;53.25;;;;;6.59;53.50;102319.81;5061794;28;46130;-63
2022/03/01 02:20:14;;;;;;;;;65.75;51.00;;;;;6.59;53.06;102312.94;5061151;28;45213;-63
2022/03/01 02:22:40;;;;;;;;;65.50;48.75;;;;;6.58;53.09;102310.31;5059649;28;45295;-63
2022/03/01 02:25:06;;;;;;;;;64.25;50.50;;;;;6.60;53.37;102324.13;5061293;28;45312;-63
2022/03/01 02:27:32;;;;;;;;;66.00;49.00;;;;;6.58;53.70;102311.19;5061462;28;45527;-63
2022/03/01 02:29:57;;;;;;;;;67.75;53.00;;;;;6.59;52.95;102315.50;5061284;28;45416;-63
2022/03/01 02:32:22;;;;;;;;;71.00;51.00;;;;;6.61;52.72;102315.56;5061600;28;45418;-62
2022/03/01 02:34:48;;;;;;;;;67.75;48.50;;;;;6.62;53.08;102315.56;5061375;28;45231;-62
2022/03/01 02:37:14;;;;;;;;;65.50;53.00;;;;;6.61;53.24;102315.56;5060548;28;45386;-62
2022/03/01 02:39:39;;;;;;;;;67.75;50.00;;;;;6.59;53.29;102314.63;5059784;28;45504;-62
2022/03/01 02:42:05;;;;;;;;;68.50;51.50;;;;;6.55;52.83;102310.28;5061329;28;45303;-63
2022/03/01 02:44:30;;;;;;;;;72.50;52.50;;;;;6.53;53.57;102310.25;5060154;28;45411;-63
2022/03/01 02:46:56;;;;;;;;;70.25;50.75;;;;;6.52;53.43;102311.13;5056419;28;46114;-63
2022/03/01 02:49:21;;;;;;;;;61.00;47.25;;;;;6.50;53.19;102306.78;5059521;28;45596;-63
2022/03/01 02:51:47;;;;;;;;;65.00;49.25;;;;;6.50;53.31;102311.94;5058574;28;45430;-63
2022/03/01 02:54:12;;;;;;;;;65.25;49.50;;;;;6.49;54.74;102310.22;5059156;28;46416;-63
2022/03/01 02:56:39;;;;;;;;;65.75;48.50;;;;;6.48;53.93;102314.50;5057699;28;48194;-63
2022/03/01 02:59:05;;;;;;;;;69.50;50.75;;;;;6.47;54.35;102311.91;5059112;28;45320;-63
2022/03/01 03:01:31;;;;;;;;;65.75;51.00;;;;;6.48;54.29;102319.66;5059753;28;45474;-63
2022/03/01 03:03:56;;;;;;;;;63.00;47.75;;;;;6.51;53.90;102317.13;5059466;28;45475;-63
2022/03/01 03:06:23;;;;;;;;;65.50;53.00;;;;;6.53;53.83;102324.91;5061126;28;46327;-63
2022/03/01 03:08:48;;;;;;;;;70.00;49.50;;;;;6.53;54.43;102322.31;5060476;28;45282;-63
2022/03/01 03:11:13;;;;;;;;;68.75;50.00;;;;;6.51;54.69;102321.41;5061166;28;45279;-62
2022/03/01 03:13:39;;;;;;;;;69.00;52.25;;;;;6.52;54.05;102325.75;5059432;28;45470;-62
2022/03/01 03:16:05;;;;;;;;;65.75;51.75;;;;;6.50;54.66;102314.53;5058412;28;45731;-62
2022/03/01 03:18:31;;;;;;;;;67.25;51.75;;;;;6.49;54.39;102318.81;5058283;28;45752;-63
2022/03/01 03:20:57;;;;;;;;;69.25;52.00;;;;;6.49;54.60;102317.97;5058004;28;45412;-62
2022/03/01 03:23:22;;;;;;;;;66.50;51.75;;;;;6.47;54.49;102315.34;5057907;28;45403;-61
2022/03/01 03:25:48;;;;;;;;;63.25;49.00;;;;;6.47;54.63;102312.78;5056797;28;48089;-61
2022/03/01 03:28:13;;;;;;;;;72.50;53.25;;;;;6.47;54.56;102312.78;5056636;28;45622;-62
2022/03/01 03:30:38;;;;;;;;;56.50;46.50;;;;;6.48;54.97;102311.91;5059728;28;45432;-62
2022/03/01 03:33:04;;;;;;;;;68.75;52.00;;;;;6.51;54.74;102309.38;5060486;28;45454;-61
2022/03/01 03:35:29;;;;;;;;;67.75;55.00;;;;;6.55;54.71;102308.56;5060668;28;46407;-61
2022/03/01 03:37:55;;;;;;;;;61.75;45.25;;;;;6.57;54.38;102306.88;5060054;28;45287;-63
2022/03/01 03:40:21;;;;;;;;;73.50;53.50;;;;;6.57;54.85;102304.28;5060688;28;45438;-63
2022/03/01 03:42:46;;;;;;;;;69.25;52.25;;;;;6.57;54.77;102301.72;5057541;28;45511;-62
2022/03/01 03:45:12;;;;;;;;;65.75;49.25;;;;;6.58;54.76;102300.00;5060112;28;46109;-62
2022/03/01 03:47:39;;;;;;;;;71.75;51.50;;;;;6.59;54.30;102301.72;5059741;28;45525;-62
2022/03/01 03:50:05;;;;;;;;;64.75;51.75;;;;;6.61;54.44;102293.19;5060191;28;45348;-62
2022/03/01 03:52:31;;;;;;;;;66.50;52.00;;;;;6.61;55.33;102294.91;5060211;28;45331;-62
2022/03/01 03:54:56;;;;;;;;;65.75;49.75;;;;;6.58;55.09;102287.06;5059514;28;45518;-63
2022/03/01 03:57:22;;;;;;;;;68.00;50.25;;;;;6.59;55.30;102302.59;5060101;28;45437;-63
2022/03/01 03:59:47;;;;;;;;;68.50;51.00;;;;;6.60;54.92;102303.47;5060055;28;45334;-62
2022/03/01 04:02:12;;;;;;;;;71.25;53.00;;;;;6.61;54.80;102306.09;5059879;28;45504;-62
2022/03/01 04:04:38;;;;;;;;;69.75;53.50;;;;;6.59;54.83;102306.91;5058448;28;47299;-62
2022/03/01 04:07:04;;;;;;;;;69.50;52.00;;;;;6.59;56.23;102296.56;5059264;28;45272;-62
2022/03/01 04:09:29;;;;;;;;;67.00;52.50;;;;;6.55;55.64;102290.50;5059791;28;45229;-62
2022/03/01 04:11:55;;;;;;;;;70.25;52.00;;;;;6.57;55.18;102287.94;5060030;28;45395;-63
2022/03/01 04:14:21;;;;;;;;;69.00;54.50;;;;;6.57;54.78;102288.78;5059643;28;45384;-63
2022/03/01 04:16:46;;;;;;;;;72.00;55.50;;;;;6.56;55.49;102283.59;5059712;28;45240;-62
2022/03/01 04:19:12;;;;;;;;;66.75;51.75;;;;;6.55;54.96;102274.13;5059497;28;45259;-63
2022/03/01 04:21:39;;;;;;;;;66.25;52.50;;;;;6.61;55.60;102281.97;5059450;28;45302;-62
2022/03/01 04:24:05;;;;;;;;;61.25;50.50;;;;;6.61;55.30;102279.41;5059702;28;46344;-63
2022/03/01 04:26:30;;;;;;;;;71.25;52.75;;;;;6.62;55.61;102276.84;5059537;28;45298;-60
2022/03/01 04:28:56;;;;;;;;;66.50;52.00;;;;;6.64;55.79;102279.44;5059989;28;45436;-64
2022/03/01 04:31:22;;;;;;;;;67.00;51.25;;;;;6.63;55.79;102278.56;5058148;28;45817;-60
2022/03/01 04:33:48;;;;;;;;;67.50;51.75;;;;;6.69;55.74;102296.72;5059608;28;45570;-69
2022/03/01 04:36:14;;;;;;;;;62.75;51.00;;;;;6.70;55.44;102302.75;5059602;28;45748;-61
2022/03/01 04:38:40;;;;;;;;;73.25;53.25;;;;;6.69;55.56;102301.88;5059667;28;45222;-61
2022/03/01 04:41:05;;;;;;;;;67.50;52.50;;;;;6.72;55.54;102298.47;5059368;28;45605;-61
2022/03/01 04:43:31;;;;;;;;;69.25;49.25;;;;;6.74;55.64;102296.78;5058662;28;45403;-63
2022/03/01 04:45:57;;;;;;;;;64.75;49.00;;;;;6.76;55.29;102289.91;5057153;28;45609;-61
2022/03/01 04:48:23;;;;;;;;;73.25;54.75;;;;;6.76;55.11;102279.56;5059283;28;45505;-62
2022/03/01 04:50:50;;;;;;;;;60.75;49.50;;;;;6.80;55.20;102289.09;5059586;28;45237;-61
2022/03/01 04:53:15;;;;;;;;;69.00;51.75;;;;;6.82;55.36;102284.84;5057322;28;48127;-61
2022/03/01 04:55:41;;;;;;;;;73.75;54.25;;;;;6.87;55.66;102285.75;5059525;28;45350;-61
2022/03/01 04:58:06;;;;;;;;;70.00;52.00;;;;;6.93;55.45;102290.13;5059195;28;45484;-61
2022/03/01 05:00:31;;;;;;;;;65.50;53.00;;;;;6.94;55.33;102284.97;5059136;28;45281;-61
2022/03/01 05:02:57;;;;;;;;;76.25;52.75;;;;;6.96;55.60;102280.69;5057504;28;47150;-61
2022/03/01 05:05:22;;;;;;;;;66.25;52.50;;;;;6.99;55.38;102285.03;5059253;28;45450;-61
2022/03/01 05:07:49;;;;;;;;;68.75;50.75;;;;;7.01;55.19;102294.56;5057554;28;45973;-61
2022/03/01 05:10:17;;;;;;;;;67.00;49.50;;;;;7.04;55.44;102291.13;5058891;28;45433;-61
2022/03/01 05:12:52;;;;;;;;;62.50;48.50;;;;;7.08;55.43;102281.69;5046057;28;46281;-61
2022/03/01 05:15:19;;;;;;;;;70.00;52.25;;;;;7.10;55.09;102283.44;5057311;28;45910;-60
2022/03/01 05:17:45;;;;;;;;;64.50;50.50;;;;;7.12;55.53;102276.56;5059468;28;45398;-60
2022/03/01 05:20:12;;;;;;;;;66.50;50.00;;;;;7.15;55.03;102278.31;5060991;28;45301;-61
2022/03/01 05:22:38;;;;;;;;;73.00;50.50;;;;;7.17;54.92;102279.22;5062494;28;45434;-61
2022/03/01 05:25:04;;;;;;;;;64.00;50.00;;;;;7.17;54.97;102287.81;5062168;28;45325;-60
2022/03/01 05:27:30;;;;;;;;;63.75;48.50;;;;;7.20;55.13;102287.00;5082518;27;45487;-60
2022/03/01 05:29:56;;;;;;;;;68.00;51.00;;;;;7.20;55.12;102276.66;5062268;28;45215;-60
2022/03/01 05:32:21;;;;;;;;;65.75;52.00;;;;;7.20;54.76;102272.34;5061187;28;46166;-59
2022/03/01 05:34:47;;;;;;;;;69.25;53.00;;;;;7.20;54.61;102268.88;5061929;28;45219;-60
2022/03/01 05:37:12;;;;;;;;;67.50;54.75;;;;;7.20;54.89;102276.66;5060974;28;45264;-59
2022/03/01 05:39:38;;;;;;;;;67.00;52.25;;;;;7.21;54.85;102270.66;5061765;28;45359;-61
2022/03/01 05:42:04;;;;;;;;;69.75;50.75;;;;;7.20;54.60;102272.34;5061975;28;45394;-61
2022/03/01 05:44:30;;;;;;;;;61.25;49.00;;;;;7.23;54.86;102281.88;5061756;28;45376;-61
2022/03/01 05:46:55;;;;;;;;;71.25;53.00;;;;;7.25;54.83;102275.00;5057730;28;45836;-61
2022/03/01 05:49:21;;;;;;;;;68.00;52.33;;;;;7.28;55.17;102280.22;5061720;28;45311;-61
2022/03/01 05:51:47;;;;;;;;;70.00;54.00;;;;;7.31;54.98;102272.47;5061793;28;46126;-60
2022/03/01 05:54:12;;;;;;;;;71.25;53.25;;;;;7.31;54.44;102275.06;5061388;28;45388;-60
2022/03/01 05:56:38;;;;;;;;;60.75;47.00;;;;;7.31;54.84;102269.88;5077687;27;45333;-60
2022/03/01 05:59:03;;;;;;;;;59.25;47.25;;;;;7.31;54.58;102265.59;5060834;28;45343;-60
2022/03/01 06:01:28;;;;;;;;;67.25;51.75;;;;;7.30;54.69;102269.03;5061552;28;46483;-60
2022/03/01 06:03:54;;;;;;;;;67.00;53.25;;;;;7.32;54.91;102269.03;5059493;28;45411;-60
2022/03/01 06:06:19;;;;;;;;;64.00;51.00;;;;;7.31;55.01;102272.47;5062023;28;45319;-60
2022/03/01 06:08:45;;;;;;;;;69.00;52.75;;;;;7.33;55.04;102275.94;5061812;28;45591;-60
2022/03/01 06:11:10;;;;;;;;;66.50;52.25;;;;;7.32;54.53;102274.22;5086594;27;46971;-60
2022/03/01 06:13:37;;;;;;;;;70.00;51.25;;;;;7.30;54.63;102279.38;5059568;28;45177;-60
2022/03/01 06:16:04;;;;;;;;;59.50;45.75;;;;;7.26;55.14;102280.19;5060125;28;45284;-67
2022/03/01 06:18:30;;;;;;;;;69.00;50.75;;;;;7.23;54.93;102275.00;5061172;28;45476;-67
2022/03/01 06:20:58;;;;;;;;;68.25;52.00;;;;;7.21;54.88;102278.41;5060844;28;45557;-67
2022/03/01 06:23:24;;;;;;;;;65.00;49.50;;;;;7.22;55.40;102286.19;5061121;28;45365;-67
2022/03/01 06:25:49;;;;;;;;;66.50;51.75;;;;;7.23;54.88;102281.88;5060304;28;45299;-67
2022/03/01 06:28:15;;;;;;;;;73.00;51.50;;;;;7.23;54.85;102284.47;5059817;28;45253;-67
2022/03/01 06:30:41;;;;;;;;;62.25;50.50;;;;;7.25;55.03;102285.34;5060675;28;45223;-67
2022/03/01 06:33:06;;;;;;;;;59.25;49.00;;;;;7.22;55.05;102300.84;5059535;28;45229;-67
2022/03/01 06:35:32;;;;;;;;;65.25;51.00;;;;;7.20;54.95;102302.50;5059545;28;45359;-67
2022/03/01 06:37:57;;;;;;;;;59.25;44.00;;;;;7.17;54.90;102298.16;5060659;28;45156;-67
2022/03/01 06:40:23;;;;;;;;;70.00;52.00;;;;;7.20;55.04;102305.09;5059284;28;48131;-67
2022/03/01 06:42:49;;;;;;;;;66.25;47.00;;;;;7.18;55.12;102299.03;5060280;28;45233;-67
2022/03/01 06:45:15;;;;;;;;;65.00;48.25;;;;;7.14;54.95;102292.97;5060683;28;45392;-67
2022/03/01 06:47:41;;;;;;;;;69.25;46.25;;;;;7.15;54.88;102301.59;5060014;28;45487;-67
2022/03/01 06:50:07;;;;;;;;;74.50;54.00;;;;;7.14;54.73;102299.84;5056775;28;48247;-67
2022/03/01 06:52:34;;;;;;;;;65.00;48.50;;;;;7.14;55.47;102302.44;5042027;28;45310;-64
2022/03/01 06:55:04;;;;;;;;;66.75;49.25;;;;;7.16;55.13;102309.34;5060143;28;45238;-66
2022/03/01 06:57:30;;;;;;;;;63.75;51.00;;;;;7.14;55.36;102307.59;5058190;28;45559;-66
2022/03/01 06:59:55;;;;;;;;;68.50;51.50;;;;;7.17;55.43;102312.81;5060192;28;45338;-64
2022/03/01 07:02:22;;;;;;;;;65.50;48.75;;;;;7.17;55.43;102308.50;5059819;28;45319;-64
2022/03/01 07:04:47;;;;;;;;;66.00;50.00;;;;;7.20;55.23;102311.13;5060553;28;45351;-64
2022/03/01 07:07:13;;;;;;;;;56.25;49.25;;;;;7.21;55.14;102312.88;5060310;28;45607;-64
2022/03/01 07:09:38;;;;;;;;;66.50;49.25;;;;;7.23;55.23;102313.78;5058768;28;47034;-64
2022/03/01 07:12:04;;;;;;;;;64.50;47.25;;;;;7.23;55.37;102318.09;5058686;28;45312;-64
2022/03/01 07:14:29;;;;;;;;;69.75;51.50;;;;;7.24;55.26;102322.41;5060582;28;45382;-64
2022/03/01 07:16:54;;;;;;;;;68.50;51.00;;;;;7.26;55.43;102331.03;5059946;28;45181;-64
2022/03/01 07:19:20;;;;;;;;;62.33;48.67;;;;;7.26;55.57;102333.63;5060274;28;45224;-64
2022/03/01 07:21:45;;;;;;;;;69.25;51.25;;;;;7.26;55.56;102325.88;5059771;28;45281;-63
2022/03/01 07:24:11;;;;;;;;;66.25;50.00;;;;;7.28;55.71;102324.16;5092525;27;45449;-63
2022/03/01 07:26:36;;;;;;;;;65.75;50.25;;;;;7.30;55.43;102325.03;5059987;28;45257;-63
2022/03/01 07:29:02;;;;;;;;;71.50;50.25;;;;;7.36;55.34;102316.47;5059873;28;45367;-62
2022/03/01 07:31:28;;;;;;;;;66.75;49.75;;;;;7.45;55.82;102320.03;5059807;28;45287;-62
2022/03/01 07:33:53;;;;;;;;;61.25;50.25;;;;;7.53;55.38;102314.94;5058576;28;45411;-63
2022/03/01 07:36:19;;;;;;;;;63.50;49.75;;;;;7.57;55.21;102317.56;5057669;28;45628;-62
2022/03/01 07:38:44;;;;;;;;;63.75;47.25;;;;;7.61;55.05;102311.59;5058632;28;46128;-61
2022/03/01 07:41:10;;;;;;;;;63.50;49.00;;;;;7.65;55.12;102317.66;5058316;28;45611;-61
2022/03/01 07:43:35;;;;;;;;;66.75;52.00;;;;;7.65;55.01;102325.44;5058751;28;45500;-61
2022/03/01 07:46:00;;;;;;;;;71.00;53.25;;;;;7.67;54.45;102321.13;5059495;28;45533;-62
2022/03/01 07:48:26;;;;;;;;;63.25;48.75;;;;;7.75;55.14;102323.78;5058177;28;46039;-63
2022/03/01 07:50:51;;;;;;;;;64.25;47.50;;;;;7.82;54.98;102328.19;5059812;28;45302;-62
2022/03/01 07:53:17;;;;;;;;;67.25;53.00;;;;;7.88;55.03;102321.34;5056935;28;45528;-64
2022/03/01 07:55:42;;;;;;;;;71.00;50.25;;;;;7.97;54.80;102322.25;5059476;28;45276;-62
2022/03/01 07:58:08;;;;;;;;;67.50;46.50;;;;;8.06;54.76;102324.94;5059673;28;45362;-62
2022/03/01 08:00:34;;;;;;;;;70.00;52.75;;;;;8.10;54.57;102313.75;5075214;27;45450;-62
2022/03/01 08:02:59;;;;;;;;;69.50;51.50;;;;;8.19;54.65;102312.06;5059709;28;45348;-62
2022/03/01 08:05:24;;;;;;;;;72.50;54.00;;;;;8.29;54.20;102317.34;5058104;28;45233;-62
2022/03/01 08:07:51;;;;;;;;;63.75;50.25;;;;;8.32;53.87;102309.59;5059260;28;45241;-62
2022/03/01 08:10:17;;;;;;;;;69.50;53.25;;;;;8.43;54.04;102320.94;5074887;28;45240;-62
2022/03/01 08:12:42;;;;;;;;;67.50;50.00;;;;;8.52;53.50;102329.63;5075022;28;45255;-64
2022/03/01 08:15:09;;;;;;;;;69.50;50.75;;;;;8.64;54.13;102331.44;5074811;28;45641;-64
2022/03/01 08:17:34;;;;;;;;;67.25;50.25;;;;;8.71;53.49;102322.81;5059520;28;45257;-64
2022/03/01 08:19:59;;;;;;;;;62.75;48.00;;;;;8.88;53.18;102329.84;5059231;28;45473;-64
2022/03/01 08:22:25;;;;;;;;;57.75;43.75;;;;;8.93;52.79;102328.13;5059338;28;45319;-61
2022/03/01 08:24:50;;;;;;;;;62.25;48.50;;;;;9.01;52.64;102334.19;5058839;28;45323;-62
2022/03/01 08:27:17;;;;;;;;;55.75;42.25;;;;;9.07;52.29;102327.34;5059246;28;45405;-62
2022/03/01 08:29:42;;;;;;;;;57.00;44.50;;;;;9.13;51.58;102323.88;5075090;28;45814;-63
2022/03/01 08:32:08;;;;;;;;;50.25;39.50;;;;;9.19;51.33;102328.22;5059145;28;45304;-61
2022/03/01 08:34:33;;;;;;;;;59.00;39.50;;;;;9.23;50.61;102312.69;5058771;28;45397;-61
2022/03/01 08:36:58;;;;;;;;;58.00;40.50;;;;;9.29;50.58;102312.72;5058303;28;45477;-61
2022/03/01 08:39:24;;;;;;;;;52.00;37.25;;;;;9.41;50.46;102317.06;5058096;28;45436;-61
2022/03/01 08:41:53;;;;;;;;;57.50;40.75;;;;;9.51;50.62;102310.16;5091031;27;45413;-61
2022/03/01 08:44:19;;;;;;;;;57.00;44.00;;;;;9.62;50.35;102324.03;5058940;28;45264;-61
2022/03/01 08:46:44;;;;;;;;;66.50;49.50;;;;;9.72;50.33;102318.00;5058628;28;46380;-63
2022/03/01 08:49:10;;;;;;;;;58.25;43.00;;;;;9.81;49.88;102322.31;5058987;28;45402;-64
2022/03/01 08:51:35;;;;;;;;;56.00;43.75;;;;;9.92;49.93;102326.66;5058939;28;45421;-63
2022/03/01 08:54:02;;;;;;;;;66.25;45.50;;;;;10.04;49.69;102328.41;5058860;28;45564;-63
2022/03/01 08:56:28;;;;;;;;;61.00;45.25;;;;;10.21;50.08;102341.41;5061678;28;45376;-62
2022/03/01 08:58:55;;;;;;;;;55.50;42.75;;;;;10.32;49.51;102337.09;5062674;28;45288;-65
2022/03/01 09:01:20;;;;;;;;;55.50;42.25;;;;;10.45;48.89;102343.16;5062329;28;45235;-63
2022/03/01 09:03:46;;;;;;;;;57.75;42.50;;;;;10.48;49.09;102345.75;5095613;27;45543;-63
2022/03/01 09:06:12;;;;;;;;;54.50;42.50;;;;;10.56;49.05;102338.78;5061158;28;46359;-62
2022/03/01 09:08:39;;;;;;;;;58.00;44.00;;;;;10.62;48.66;102338.78;5060807;28;45429;-62
2022/03/01 09:11:04;;;;;;;;;63.25;45.75;;;;;10.70;48.83;102344.81;5060813;28;45551;-62
2022/03/01 09:13:30;;;;;;;;;57.25;44.00;;;;;10.74;48.27;102335.28;5095660;27;45629;-62
2022/03/01 09:15:55;;;;;;;;;59.50;45.50;;;;;10.80;47.88;102333.50;5076336;28;47639;-62
2022/03/01 09:18:21;;;;;;;;;54.25;42.50;;;;;10.88;48.25;102331.78;5060815;28;45307;-61
2022/03/01 09:20:47;;;;;;;;;55.25;40.00;;;;;11.02;47.85;102326.53;5060407;28;45361;-61
2022/03/01 09:23:13;;;;;;;;;61.00;42.75;;;;;11.14;47.57;102326.47;5059978;28;45377;-62
2022/03/01 09:25:39;;;;;;;;;53.25;41.25;;;;;11.17;47.14;102322.97;5060810;28;45350;-61
2022/03/01 09:28:04;;;;;;;;;56.00;43.00;;;;;11.20;47.13;102326.44;5060380;28;45322;-62
2022/03/01 09:30:30;;;;;;;;;57.50;42.00;;;;;11.25;47.20;102327.28;5060771;28;45901;-66
2022/03/01 09:32:55;;;;;;;;;54.25;40.25;;;;;11.27;47.25;102316.88;5060484;28;45319;-67
2022/03/01 09:35:21;;;;;;;;;57.75;43.25;;;;;11.28;46.33;102313.41;5076185;28;47013;-61
2022/03/01 09:37:47;;;;;;;;;51.75;37.75;;;;;11.24;46.46;102312.56;5060200;28;45172;-66
2022/03/01 09:40:14;;;;;;;;;60.50;45.00;;;;;11.26;46.29;102316.00;5060290;28;45212;-61
2022/03/01 09:42:40;;;;;;;;;38.75;35.75;;;;;11.28;46.03;102308.19;5059264;28;45453;-61
2022/03/01 09:45:06;;;;;;;;;54.00;39.75;;;;;11.28;45.83;102309.06;5057847;28;47917;-61
2022/03/01 09:47:32;;;;;;;;;57.75;42.25;;;;;11.34;45.78;102308.16;5059248;28;45536;-60
2022/03/01 09:49:57;;;;;;;;;64.50;47.25;;;;;11.44;45.96;102307.25;5057720;28;45442;-60
2022/03/01 09:52:23;;;;;;;;;58.75;41.25;;;;;11.64;45.73;102316.66;5041518;28;45708;-62
2022/03/01 09:54:50;;;;;;;;;53.50;38.75;;;;;11.75;45.77;102315.69;5058128;28;47113;-58
2022/03/01 09:57:17;;;;;;;;;58.25;45.75;;;;;11.85;45.42;102332.19;5058569;28;45484;-60
2022/03/01 09:59:43;;;;;;;;;61.50;48.75;;;;;11.94;45.44;102323.41;5059473;28;45485;-61
2022/03/01 10:02:09;;;;;;;;;56.25;42.00;;;;;12.11;45.22;102331.97;5056477;28;45574;-61
2022/03/01 10:04:49;;;;;;;;;55.75;41.25;;;;;12.34;44.82;102336.97;5058000;28;45421;-61
2022/03/01 10:07:21;;;;;;;;;49.50;36.50;;;;;12.55;44.29;102333.28;5057978;28;45426;-61
2022/03/01 10:09:46;;;;;;;;;47.00;40.75;;;;;12.70;44.26;102333.13;5060125;28;45414;-60
2022/03/01 10:12:12;;;;;;;;;43.00;36.25;;;;;12.89;43.71;102334.66;5060064;28;45334;-58
2022/03/01 10:14:39;;;;;;;;;52.50;39.75;;;;;12.98;43.48;102323.25;5060221;28;45572;-61
2022/03/01 10:17:12;;;;;;;;;44.50;37.25;;;;;13.16;43.13;102329.97;5059469;28;45887;-61
2022/03/01 10:19:38;;;;;;;;;51.75;38.50;;;;;13.21;42.30;102329.06;5059247;28;45371;-60
2022/03/01 10:22:04;;;;;;;;;50.25;38.00;;;;;13.16;42.87;102330.84;5059409;28;45546;-61
2022/03/01 10:24:30;;;;;;;;;46.25;36.50;;;;;13.30;42.75;102323.75;5056902;28;45461;-61
2022/03/01 10:27:05;;;;;;;;;52.75;38.00;;;;;13.52;42.63;102329.53;5061630;28;45375;-60
2022/03/01 10:29:31;;;;;;;;;46.50;38.00;;;;;13.75;42.33;102326.56;5057671;28;45376;-61
2022/03/01 10:32:00;;;;;;;;;57.50;43.50;;;;;13.88;41.68;102319.41;5059700;28;45484;-61
2022/03/01 10:34:29;;;;;;;;;53.25;43.00;;;;;13.89;41.82;102321.13;5059870;28;46261;-62
2022/03/01 10:36:55;;;;;;;;;51.25;40.00;;;;;13.91;41.61;102322.84;5059470;28;45405;-62
2022/03/01 10:39:31;;;;;;;;;56.00;43.25;;;;;13.96;41.24;102321.00;5059590;28;45408;-61
2022/03/01 10:41:57;;;;;;;;;49.50;37.00;;;;;14.02;41.38;102324.44;5057831;28;45248;-60
2022/03/01 10:44:26;;;;;;;;;45.00;37.75;;;;;13.96;41.46;102322.75;5059163;28;45477;-61
2022/03/01 10:46:54;;;;;;;;;45.25;37.25;;;;;13.93;41.05;102317.56;5056524;28;45972;-68
2022/03/01 10:49:25;;;;;;;;;45.25;35.50;;;;;13.88;41.10;102320.28;5058164;28;45630;-61
2022/03/01 10:51:53;;;;;;;;;51.00;38.75;;;;;13.84;41.18;102320.34;5056749;28;45315;-62
2022/03/01 10:54:27;;;;;;;;;46.00;34.25;;;;;13.85;41.18;102309.88;5090974;27;47066;-62
2022/03/01 10:56:55;;;;;;;;;45.75;37.00;;;;;13.87;41.27;102310.72;5057037;28;45374;-62
2022/03/01 10:59:24;;;;;;;;;50.50;36.00;;;;;13.92;41.13;102305.41;5059250;28;45466;-62
2022/03/01 11:01:51;;;;;;;;;49.75;35.75;;;;;14.02;41.08;102311.34;5056207;28;45359;-62
2022/03/01 11:04:17;;;;;;;;;44.00;35.00;;;;;14.11;40.79;102304.19;5056107;28;45676;-62
2022/03/01 11:06:45;;;;;;;;;39.50;32.50;;;;;14.24;40.88;102300.50;5057156;28;45928;-61
2022/03/01 11:09:12;;;;;;;;;40.75;33.25;;;;;14.36;40.69;102296.78;5053813;28;45362;-61
2022/03/01 11:11:40;;;;;;;;;41.00;36.00;;;;;14.50;40.66;102292.19;5073876;28;45385;-62